sensor_id;sensor_type;location;lat;lon;timestamp;temperature;humidity
19359;DHT22;9815;52.334;20.890;2024-02-14T00:00:33;4.30;99.90
19359;DHT22;9815;52.334;20.890;2024-02-14T00:03:02;4.30;99.90
19359;DHT22;9815;52.334;20.890;2024-02-14T00:05:32;4.30;99.90
19359;DHT22;9815;52.334;20.890;2024-02-14T00:08:00;4.30;99.90
19359;DHT22;9815;52.334;20.890;2024-02-14T00:10:30;4.30;99.90
19359;DHT22;9815;52.334;20.890;2024-02-14T00:12:58;4.30;99.90
19359;DHT22;9815;52.334;20.890;2024-02-14T00:15:27;4.30;99.90
19359;DHT22;9815;52.334;20.890;2024-02-14T00:17:56;4.30;99.90
19359;DHT22;9815;52.334;20.890;2024-02-14T00:20:25;4.30;99.90
19359;DHT22;9815;52.334;20.890;2024-02-14T00:22:54;4.30;99.90
19359;DHT22;9815;52.334;20.890;2024-02-14T00:25:23;4.30;99.90
19359;DHT22;9815;52.334;20.890;2024-02-14T00:27:51;4.30;99.90
19359;DHT22;9815;52.334;20.890;2024-02-14T00:30:21;4.30;99.90
19359;DHT22;9815;52.334;20.890;2024-02-14T00:32:50;4.30;99.90
19359;DHT22;9815;52.334;20.890;2024-02-14T00:35:19;4.20;99.90
19359;DHT22;9815;52.334;20.890;2024-02-14T00:37:47;4.10;99.90
19359;DHT22;9815;52.334;20.890;2024-02-14T00:40:18;4.10;99.90
19359;DHT22;9815;52.334;20.890;2024-02-14T00:42:46;4.00;99.90
19359;DHT22;9815;52.334;20.890;2024-02-14T00:45:14;4.00;99.90
19359;DHT22;9815;52.334;20.890;2024-02-14T00:47:43;3.90;99.90
19359;DHT22;9815;52.334;20.890;2024-02-14T00:50:12;3.80;99.90
19359;DHT22;9815;52.334;20.890;2024-02-14T00:52:41;3.80;99.90
19359;DHT22;9815;52.334;20.890;2024-02-14T00:55:09;3.70;99.90
19359;DHT22;9815;52.334;20.890;2024-02-14T00:57:39;3.70;99.90
19359;DHT22;9815;52.334;20.890;2024-02-14T01:00:08;3.50;99.90
19359;DHT22;9815;52.334;20.890;2024-02-14T01:02:37;3.40;99.90
19359;DHT22;9815;52.334;20.890;2024-02-14T01:05:06;3.30;99.90
19359;DHT22;9815;52.334;20.890;2024-02-14T01:07:35;3.20;99.90
19359;DHT22;9815;52.334;20.890;2024-02-14T01:10:04;3.10;99.90
19359;DHT22;9815;52.334;20.890;2024-02-14T01:12:33;3.00;99.90
19359;DHT22;9815;52.334;20.890;2024-02-14T01:15:03;3.00;99.90
19359;DHT22;9815;52.334;20.890;2024-02-14T01:17:32;2.90;99.90
19359;DHT22;9815;52.334;20.890;2024-02-14T01:20:03;2.90;99.90
19359;DHT22;9815;52.334;20.890;2024-02-14T01:22:32;2.70;99.90
19359;DHT22;9815;52.334;20.890;2024-02-14T01:25:00;2.70;99.90
19359;DHT22;9815;52.334;20.890;2024-02-14T01:27:30;2.60;99.90
19359;DHT22;9815;52.334;20.890;2024-02-14T01:29:58;2.60;99.90
19359;DHT22;9815;52.334;20.890;2024-02-14T01:32:28;2.50;99.90
19359;DHT22;9815;52.334;20.890;2024-02-14T01:34:57;2.40;99.90
19359;DHT22;9815;52.334;20.890;2024-02-14T01:37:27;2.30;99.90
19359;DHT22;9815;52.334;20.890;2024-02-14T01:39:56;2.20;99.90
19359;DHT22;9815;52.334;20.890;2024-02-14T01:42:24;2.10;99.90
19359;DHT22;9815;52.334;20.890;2024-02-14T01:44:54;2.10;99.90
19359;DHT22;9815;52.334;20.890;2024-02-14T01:47:23;2.00;99.90
19359;DHT22;9815;52.334;20.890;2024-02-14T01:49:53;1.90;99.90
19359;DHT22;9815;52.334;20.890;2024-02-14T01:52:21;1.90;99.90
19359;DHT22;9815;52.334;20.890;2024-02-14T01:54:50;1.80;99.90
19359;DHT22;9815;52.334;20.890;2024-02-14T01:57:19;1.90;99.90
19359;DHT22;9815;52.334;20.890;2024-02-14T01:59:49;1.80;99.90
19359;DHT22;9815;52.334;20.890;2024-02-14T02:02:20;1.80;99.90
19359;DHT22;9815;52.334;20.890;2024-02-14T02:04:48;1.80;99.90
19359;DHT22;9815;52.334;20.890;2024-02-14T02:07:19;1.70;99.90
19359;DHT22;9815;52.334;20.890;2024-02-14T02:09:47;1.70;99.90
19359;DHT22;9815;52.334;20.890;2024-02-14T02:12:16;1.60;99.90
19359;DHT22;9815;52.334;20.890;2024-02-14T02:14:44;1.50;99.90
19359;DHT22;9815;52.334;20.890;2024-02-14T02:17:13;1.50;99.90
19359;DHT22;9815;52.334;20.890;2024-02-14T02:19:42;1.50;99.90
19359;DHT22;9815;52.334;20.890;2024-02-14T02:22:11;1.40;99.90
19359;DHT22;9815;52.334;20.890;2024-02-14T02:24:40;1.40;99.90
19359;DHT22;9815;52.334;20.890;2024-02-14T02:27:09;1.30;99.90
19359;DHT22;9815;52.334;20.890;2024-02-14T02:29:37;1.30;99.90
19359;DHT22;9815;52.334;20.890;2024-02-14T02:32:06;1.30;99.90
19359;DHT22;9815;52.334;20.890;2024-02-14T02:34:37;1.30;99.90
19359;DHT22;9815;52.334;20.890;2024-02-14T02:37:07;1.20;99.90
19359;DHT22;9815;52.334;20.890;2024-02-14T02:39:36;1.20;99.90
19359;DHT22;9815;52.334;20.890;2024-02-14T02:42:06;1.20;99.90
19359;DHT22;9815;52.334;20.890;2024-02-14T02:44:35;1.20;99.90
19359;DHT22;9815;52.334;20.890;2024-02-14T02:47:04;1.20;99.90
19359;DHT22;9815;52.334;20.890;2024-02-14T02:49:33;1.20;99.90
19359;DHT22;9815;52.334;20.890;2024-02-14T02:52:03;1.10;99.90
19359;DHT22;9815;52.334;20.890;2024-02-14T02:54:32;1.10;99.90
19359;DHT22;9815;52.334;20.890;2024-02-14T02:57:01;1.10;99.90
19359;DHT22;9815;52.334;20.890;2024-02-14T02:59:32;1.10;99.90
19359;DHT22;9815;52.334;20.890;2024-02-14T03:02:00;1.00;99.90
19359;DHT22;9815;52.334;20.890;2024-02-14T03:04:29;1.00;99.90
19359;DHT22;9815;52.334;20.890;2024-02-14T03:07:18;1.00;99.90
19359;DHT22;9815;52.334;20.890;2024-02-14T03:09:46;1.10;99.90
19359;DHT22;9815;52.334;20.890;2024-02-14T03:12:15;1.10;99.90
19359;DHT22;9815;52.334;20.890;2024-02-14T03:14:47;1.00;99.90
19359;DHT22;9815;52.334;20.890;2024-02-14T03:17:16;0.90;99.90
19359;DHT22;9815;52.334;20.890;2024-02-14T03:19:45;0.90;99.90
19359;DHT22;9815;52.334;20.890;2024-02-14T03:22:15;0.80;99.90
19359;DHT22;9815;52.334;20.890;2024-02-14T03:24:45;0.80;99.90
19359;DHT22;9815;52.334;20.890;2024-02-14T03:27:14;0.80;99.90
19359;DHT22;9815;52.334;20.890;2024-02-14T03:29:44;0.70;99.90
19359;DHT22;9815;52.334;20.890;2024-02-14T03:32:16;0.70;99.90
19359;DHT22;9815;52.334;20.890;2024-02-14T03:34:44;0.60;99.90
19359;DHT22;9815;52.334;20.890;2024-02-14T03:37:13;0.60;99.90
19359;DHT22;9815;52.334;20.890;2024-02-14T03:39:41;0.60;99.90
19359;DHT22;9815;52.334;20.890;2024-02-14T03:42:10;0.60;99.90
19359;DHT22;9815;52.334;20.890;2024-02-14T03:44:38;0.60;99.90
19359;DHT22;9815;52.334;20.890;2024-02-14T03:47:07;0.60;99.90
19359;DHT22;9815;52.334;20.890;2024-02-14T03:49:37;0.50;99.90
19359;DHT22;9815;52.334;20.890;2024-02-14T03:52:07;0.40;99.90
19359;DHT22;9815;52.334;20.890;2024-02-14T03:54:37;0.40;99.90
19359;DHT22;9815;52.334;20.890;2024-02-14T03:57:05;0.40;99.90
19359;DHT22;9815;52.334;20.890;2024-02-14T03:59:36;0.30;99.90
19359;DHT22;9815;52.334;20.890;2024-02-14T04:02:06;0.30;99.90
19359;DHT22;9815;52.334;20.890;2024-02-14T04:04:38;0.30;99.90
19359;DHT22;9815;52.334;20.890;2024-02-14T04:07:09;0.30;99.90
19359;DHT22;9815;52.334;20.890;2024-02-14T04:09:38;0.30;99.90
19359;DHT22;9815;52.334;20.890;2024-02-14T04:12:07;0.20;99.90
19359;DHT22;9815;52.334;20.890;2024-02-14T04:14:37;0.20;99.90
19359;DHT22;9815;52.334;20.890;2024-02-14T04:17:05;0.10;99.90
19359;DHT22;9815;52.334;20.890;2024-02-14T04:19:35;0.10;99.90
19359;DHT22;9815;52.334;20.890;2024-02-14T04:22:05;0.10;99.90
19359;DHT22;9815;52.334;20.890;2024-02-14T04:24:34;0.00;99.90
19359;DHT22;9815;52.334;20.890;2024-02-14T04:27:03;0.00;99.90
19359;DHT22;9815;52.334;20.890;2024-02-14T04:29:32;0.10;99.90
19359;DHT22;9815;52.334;20.890;2024-02-14T04:32:03;0.00;99.90
19359;DHT22;9815;52.334;20.890;2024-02-14T04:34:32;0.00;99.90
19359;DHT22;9815;52.334;20.890;2024-02-14T04:37:00;0.00;99.90
19359;DHT22;9815;52.334;20.890;2024-02-14T04:39:31;0.00;99.90
19359;DHT22;9815;52.334;20.890;2024-02-14T04:41:59;0.00;99.90
19359;DHT22;9815;52.334;20.890;2024-02-14T04:44:29;0.00;99.90
19359;DHT22;9815;52.334;20.890;2024-02-14T04:46:58;0.00;99.90
19359;DHT22;9815;52.334;20.890;2024-02-14T04:49:27;-0.10;99.90
19359;DHT22;9815;52.334;20.890;2024-02-14T04:51:57;-0.10;99.90
19359;DHT22;9815;52.334;20.890;2024-02-14T04:54:26;0.00;99.90
19359;DHT22;9815;52.334;20.890;2024-02-14T04:56:56;0.00;99.90
19359;DHT22;9815;52.334;20.890;2024-02-14T04:59:29;0.00;99.90
19359;DHT22;9815;52.334;20.890;2024-02-14T05:01:57;0.00;99.90
19359;DHT22;9815;52.334;20.890;2024-02-14T05:04:26;0.00;99.90
19359;DHT22;9815;52.334;20.890;2024-02-14T05:06:55;0.00;99.90
19359;DHT22;9815;52.334;20.890;2024-02-14T05:09:25;0.00;99.90
19359;DHT22;9815;52.334;20.890;2024-02-14T05:11:55;0.00;99.90
19359;DHT22;9815;52.334;20.890;2024-02-14T05:14:24;0.00;99.90
19359;DHT22;9815;52.334;20.890;2024-02-14T05:16:52;0.00;99.90
19359;DHT22;9815;52.334;20.890;2024-02-14T05:19:22;0.00;99.90
19359;DHT22;9815;52.334;20.890;2024-02-14T05:21:51;0.00;99.90
19359;DHT22;9815;52.334;20.890;2024-02-14T05:24:20;0.00;99.90
19359;DHT22;9815;52.334;20.890;2024-02-14T05:26:48;0.00;99.90
19359;DHT22;9815;52.334;20.890;2024-02-14T05:29:20;0.10;99.90
19359;DHT22;9815;52.334;20.890;2024-02-14T05:31:49;0.10;99.90
19359;DHT22;9815;52.334;20.890;2024-02-14T05:34:19;0.10;99.90
19359;DHT22;9815;52.334;20.890;2024-02-14T05:36:47;0.00;99.90
19359;DHT22;9815;52.334;20.890;2024-02-14T05:39:16;-0.10;99.90
19359;DHT22;9815;52.334;20.890;2024-02-14T05:41:46;0.00;99.90
19359;DHT22;9815;52.334;20.890;2024-02-14T05:44:15;-0.10;99.90
19359;DHT22;9815;52.334;20.890;2024-02-14T05:46:45;-0.10;99.90
19359;DHT22;9815;52.334;20.890;2024-02-14T05:49:15;-0.10;99.90
19359;DHT22;9815;52.334;20.890;2024-02-14T05:51:44;-0.10;99.90
19359;DHT22;9815;52.334;20.890;2024-02-14T05:54:13;-0.10;99.90
19359;DHT22;9815;52.334;20.890;2024-02-14T05:56:41;-0.10;99.90
19359;DHT22;9815;52.334;20.890;2024-02-14T05:59:10;0.00;99.90
19359;DHT22;9815;52.334;20.890;2024-02-14T06:01:39;0.00;99.90
19359;DHT22;9815;52.334;20.890;2024-02-14T06:04:08;0.00;99.90
19359;DHT22;9815;52.334;20.890;2024-02-14T06:06:37;0.00;99.90
19359;DHT22;9815;52.334;20.890;2024-02-14T06:09:05;0.20;99.90
19359;DHT22;9815;52.334;20.890;2024-02-14T06:11:38;0.00;99.90
19359;DHT22;9815;52.334;20.890;2024-02-14T06:14:07;0.00;99.90
19359;DHT22;9815;52.334;20.890;2024-02-14T06:16:35;0.10;99.90
19359;DHT22;9815;52.334;20.890;2024-02-14T06:19:04;0.10;99.90
19359;DHT22;9815;52.334;20.890;2024-02-14T06:21:34;0.30;99.90
19359;DHT22;9815;52.334;20.890;2024-02-14T06:24:03;0.30;99.90
19359;DHT22;9815;52.334;20.890;2024-02-14T06:26:31;0.40;99.90
19359;DHT22;9815;52.334;20.890;2024-02-14T06:29:00;0.50;99.90
19359;DHT22;9815;52.334;20.890;2024-02-14T06:31:33;0.60;99.90
19359;DHT22;9815;52.334;20.890;2024-02-14T06:34:01;0.60;99.90
19359;DHT22;9815;52.334;20.890;2024-02-14T06:36:30;0.70;99.90
19359;DHT22;9815;52.334;20.890;2024-02-14T06:39:00;0.80;99.90
19359;DHT22;9815;52.334;20.890;2024-02-14T06:41:28;0.80;99.90
19359;DHT22;9815;52.334;20.890;2024-02-14T06:43:58;0.90;99.90
19359;DHT22;9815;52.334;20.890;2024-02-14T06:46:26;1.10;99.90
19359;DHT22;9815;52.334;20.890;2024-02-14T06:48:55;1.10;99.90
19359;DHT22;9815;52.334;20.890;2024-02-14T06:51:24;1.10;99.90
19359;DHT22;9815;52.334;20.890;2024-02-14T06:53:53;1.10;99.90
19359;DHT22;9815;52.334;20.890;2024-02-14T06:56:23;1.20;99.90
19359;DHT22;9815;52.334;20.890;2024-02-14T06:58:51;1.40;99.90
19359;DHT22;9815;52.334;20.890;2024-02-14T07:01:21;1.40;99.90
19359;DHT22;9815;52.334;20.890;2024-02-14T07:03:50;1.50;99.90
19359;DHT22;9815;52.334;20.890;2024-02-14T07:06:19;1.50;99.90
19359;DHT22;9815;52.334;20.890;2024-02-14T07:08:48;1.70;99.90
19359;DHT22;9815;52.334;20.890;2024-02-14T07:11:17;1.80;99.90
19359;DHT22;9815;52.334;20.890;2024-02-14T07:13:47;1.90;99.90
19359;DHT22;9815;52.334;20.890;2024-02-14T07:16:15;2.00;99.90
19359;DHT22;9815;52.334;20.890;2024-02-14T07:18:44;2.10;99.90
19359;DHT22;9815;52.334;20.890;2024-02-14T07:21:13;2.30;99.90
19359;DHT22;9815;52.334;20.890;2024-02-14T07:23:42;2.30;99.90
19359;DHT22;9815;52.334;20.890;2024-02-14T07:26:10;2.40;99.90
19359;DHT22;9815;52.334;20.890;2024-02-14T07:28:39;2.50;99.90
19359;DHT22;9815;52.334;20.890;2024-02-14T07:31:09;2.50;99.90
19359;DHT22;9815;52.334;20.890;2024-02-14T07:33:38;2.70;99.90
19359;DHT22;9815;52.334;20.890;2024-02-14T07:36:07;2.80;99.90
19359;DHT22;9815;52.334;20.890;2024-02-14T07:38:36;3.00;99.90
19359;DHT22;9815;52.334;20.890;2024-02-14T07:41:04;3.10;99.90
19359;DHT22;9815;52.334;20.890;2024-02-14T07:43:33;3.20;99.90
19359;DHT22;9815;52.334;20.890;2024-02-14T07:46:02;3.30;99.90
19359;DHT22;9815;52.334;20.890;2024-02-14T07:48:34;3.40;99.90
19359;DHT22;9815;52.334;20.890;2024-02-14T07:51:07;3.50;99.90
19359;DHT22;9815;52.334;20.890;2024-02-14T07:53:35;3.70;99.90
19359;DHT22;9815;52.334;20.890;2024-02-14T07:56:04;3.80;99.90
19359;DHT22;9815;52.334;20.890;2024-02-14T07:58:33;3.80;99.90
19359;DHT22;9815;52.334;20.890;2024-02-14T08:01:01;4.00;99.90
19359;DHT22;9815;52.334;20.890;2024-02-14T08:03:31;4.00;99.90
19359;DHT22;9815;52.334;20.890;2024-02-14T08:06:01;4.10;99.90
19359;DHT22;9815;52.334;20.890;2024-02-14T08:08:30;4.20;99.90
19359;DHT22;9815;52.334;20.890;2024-02-14T08:10:58;4.30;99.90
19359;DHT22;9815;52.334;20.890;2024-02-14T08:13:27;4.30;99.90
19359;DHT22;9815;52.334;20.890;2024-02-14T08:15:55;4.50;99.90
19359;DHT22;9815;52.334;20.890;2024-02-14T08:18:25;4.50;99.90
19359;DHT22;9815;52.334;20.890;2024-02-14T08:20:54;4.60;99.90
19359;DHT22;9815;52.334;20.890;2024-02-14T08:23:24;4.60;99.90
19359;DHT22;9815;52.334;20.890;2024-02-14T08:25:53;4.70;99.90
19359;DHT22;9815;52.334;20.890;2024-02-14T08:28:21;4.80;99.90
19359;DHT22;9815;52.334;20.890;2024-02-14T08:30:50;4.80;99.90
19359;DHT22;9815;52.334;20.890;2024-02-14T08:33:18;4.80;99.90
19359;DHT22;9815;52.334;20.890;2024-02-14T08:35:47;4.90;99.90
19359;DHT22;9815;52.334;20.890;2024-02-14T08:38:16;4.90;99.90
19359;DHT22;9815;52.334;20.890;2024-02-14T08:40:46;4.90;99.90
19359;DHT22;9815;52.334;20.890;2024-02-14T08:43:14;5.00;99.90
19359;DHT22;9815;52.334;20.890;2024-02-14T08:45:43;5.10;99.90
19359;DHT22;9815;52.334;20.890;2024-02-14T08:48:11;5.20;99.90
19359;DHT22;9815;52.334;20.890;2024-02-14T08:50:40;5.20;99.90
19359;DHT22;9815;52.334;20.890;2024-02-14T08:53:09;5.30;99.90
19359;DHT22;9815;52.334;20.890;2024-02-14T08:55:40;5.50;99.90
19359;DHT22;9815;52.334;20.890;2024-02-14T08:58:11;5.60;99.90
19359;DHT22;9815;52.334;20.890;2024-02-14T09:00:40;5.70;99.90
19359;DHT22;9815;52.334;20.890;2024-02-14T09:03:08;5.90;99.90
19359;DHT22;9815;52.334;20.890;2024-02-14T09:05:37;6.10;99.90
19359;DHT22;9815;52.334;20.890;2024-02-14T09:08:06;6.30;99.90
19359;DHT22;9815;52.334;20.890;2024-02-14T09:10:35;6.40;99.90
19359;DHT22;9815;52.334;20.890;2024-02-14T09:13:04;6.70;99.90
19359;DHT22;9815;52.334;20.890;2024-02-14T09:15:36;6.90;99.90
19359;DHT22;9815;52.334;20.890;2024-02-14T09:18:04;7.10;99.90
19359;DHT22;9815;52.334;20.890;2024-02-14T09:20:33;7.20;99.90
19359;DHT22;9815;52.334;20.890;2024-02-14T09:23:02;7.30;99.90
19359;DHT22;9815;52.334;20.890;2024-02-14T09:25:30;7.40;99.90
19359;DHT22;9815;52.334;20.890;2024-02-14T09:27:59;7.50;99.90
19359;DHT22;9815;52.334;20.890;2024-02-14T09:30:27;7.60;99.90
19359;DHT22;9815;52.334;20.890;2024-02-14T09:33:06;7.70;99.90
19359;DHT22;9815;52.334;20.890;2024-02-14T09:35:35;7.80;99.90
19359;DHT22;9815;52.334;20.890;2024-02-14T09:38:05;7.80;99.90
19359;DHT22;9815;52.334;20.890;2024-02-14T09:40:34;7.90;99.90
19359;DHT22;9815;52.334;20.890;2024-02-14T09:43:05;8.10;99.90
19359;DHT22;9815;52.334;20.890;2024-02-14T09:45:37;8.20;99.90
19359;DHT22;9815;52.334;20.890;2024-02-14T09:48:15;8.30;99.90
19359;DHT22;9815;52.334;20.890;2024-02-14T09:50:45;8.40;99.90
19359;DHT22;9815;52.334;20.890;2024-02-14T09:53:15;8.60;99.90
19359;DHT22;9815;52.334;20.890;2024-02-14T09:55:46;8.70;99.90
19359;DHT22;9815;52.334;20.890;2024-02-14T09:58:15;8.80;96.60
19359;DHT22;9815;52.334;20.890;2024-02-14T10:00:43;8.80;98.10
19359;DHT22;9815;52.334;20.890;2024-02-14T10:03:14;8.90;94.90
19359;DHT22;9815;52.334;20.890;2024-02-14T10:05:45;8.90;93.60
19359;DHT22;9815;52.334;20.890;2024-02-14T10:08:16;9.00;93.70
19359;DHT22;9815;52.334;20.890;2024-02-14T10:10:45;9.20;93.10
19359;DHT22;9815;52.334;20.890;2024-02-14T10:13:18;9.40;82.60
19359;DHT22;9815;52.334;20.890;2024-02-14T10:15:47;9.40;85.20
19359;DHT22;9815;52.334;20.890;2024-02-14T10:18:17;9.60;84.90
19359;DHT22;9815;52.334;20.890;2024-02-14T10:20:53;9.70;81.00
19359;DHT22;9815;52.334;20.890;2024-02-14T10:23:22;9.90;76.60
19359;DHT22;9815;52.334;20.890;2024-02-14T10:25:52;10.10;72.90
19359;DHT22;9815;52.334;20.890;2024-02-14T10:28:21;10.10;70.80
19359;DHT22;9815;52.334;20.890;2024-02-14T10:30:59;10.20;64.10
19359;DHT22;9815;52.334;20.890;2024-02-14T10:33:29;10.30;58.10
19359;DHT22;9815;52.334;20.890;2024-02-14T10:35:58;10.30;54.20
19359;DHT22;9815;52.334;20.890;2024-02-14T10:38:31;10.50;54.40
19359;DHT22;9815;52.334;20.890;2024-02-14T10:41:01;10.60;56.60
19359;DHT22;9815;52.334;20.890;2024-02-14T10:43:31;10.50;48.80
19359;DHT22;9815;52.334;20.890;2024-02-14T10:46:03;10.60;48.60
19359;DHT22;9815;52.334;20.890;2024-02-14T10:48:38;10.70;43.40
19359;DHT22;9815;52.334;20.890;2024-02-14T10:51:08;10.70;38.60
19359;DHT22;9815;52.334;20.890;2024-02-14T10:53:39;10.90;37.20
19359;DHT22;9815;52.334;20.890;2024-02-14T10:56:16;10.80;31.70
19359;DHT22;9815;52.334;20.890;2024-02-14T10:58:47;10.70;35.40
19359;DHT22;9815;52.334;20.890;2024-02-14T11:01:17;10.70;31.90
19359;DHT22;9815;52.334;20.890;2024-02-14T11:03:49;10.70;32.10
19359;DHT22;9815;52.334;20.890;2024-02-14T11:06:18;10.90;33.10
19359;DHT22;9815;52.334;20.890;2024-02-14T11:08:56;10.80;32.70
19359;DHT22;9815;52.334;20.890;2024-02-14T11:11:28;11.10;32.60
19359;DHT22;9815;52.334;20.890;2024-02-14T11:13:58;11.10;29.20
19359;DHT22;9815;52.334;20.890;2024-02-14T11:16:27;11.20;29.30
19359;DHT22;9815;52.334;20.890;2024-02-14T11:19:10;11.30;28.60
19359;DHT22;9815;52.334;20.890;2024-02-14T11:21:40;11.20;29.00
19359;DHT22;9815;52.334;20.890;2024-02-14T11:24:11;11.00;27.30
19359;DHT22;9815;52.334;20.890;2024-02-14T11:26:49;11.00;28.50
19359;DHT22;9815;52.334;20.890;2024-02-14T11:29:20;11.20;29.40
19359;DHT22;9815;52.334;20.890;2024-02-14T11:31:58;11.30;28.10
19359;DHT22;9815;52.334;20.890;2024-02-14T11:34:29;11.40;28.30
19359;DHT22;9815;52.334;20.890;2024-02-14T11:37:04;11.50;27.00
19359;DHT22;9815;52.334;20.890;2024-02-14T11:39:33;11.70;27.80
19359;DHT22;9815;52.334;20.890;2024-02-14T11:42:02;12.00;27.20
19359;DHT22;9815;52.334;20.890;2024-02-14T11:44:31;12.30;25.20
19359;DHT22;9815;52.334;20.890;2024-02-14T11:47:00;12.40;25.60
19359;DHT22;9815;52.334;20.890;2024-02-14T11:49:30;12.20;25.30
19359;DHT22;9815;52.334;20.890;2024-02-14T11:51:59;12.20;25.40
19359;DHT22;9815;52.334;20.890;2024-02-14T11:54:27;12.20;24.10
19359;DHT22;9815;52.334;20.890;2024-02-14T11:56:56;12.40;25.90
19359;DHT22;9815;52.334;20.890;2024-02-14T11:59:25;12.30;24.20
19359;DHT22;9815;52.334;20.890;2024-02-14T12:01:54;12.30;24.00
19359;DHT22;9815;52.334;20.890;2024-02-14T12:04:26;12.20;24.80
19359;DHT22;9815;52.334;20.890;2024-02-14T12:06:56;12.20;23.30
19359;DHT22;9815;52.334;20.890;2024-02-14T12:09:25;12.00;23.80
19359;DHT22;9815;52.334;20.890;2024-02-14T12:11:57;12.10;23.20
19359;DHT22;9815;52.334;20.890;2024-02-14T12:14:27;12.20;23.40
19359;DHT22;9815;52.334;20.890;2024-02-14T12:16:59;12.30;22.50
19359;DHT22;9815;52.334;20.890;2024-02-14T12:19:28;12.30;24.10
19359;DHT22;9815;52.334;20.890;2024-02-14T12:22:00;12.40;22.80
19359;DHT22;9815;52.334;20.890;2024-02-14T12:24:29;12.40;22.00
19359;DHT22;9815;52.334;20.890;2024-02-14T12:26:58;12.30;24.10
19359;DHT22;9815;52.334;20.890;2024-02-14T12:29:26;12.20;23.60
19359;DHT22;9815;52.334;20.890;2024-02-14T12:32:03;12.00;23.90
19359;DHT22;9815;52.334;20.890;2024-02-14T12:34:32;12.10;23.70
19359;DHT22;9815;52.334;20.890;2024-02-14T12:37:03;12.10;23.20
19359;DHT22;9815;52.334;20.890;2024-02-14T12:39:33;12.30;23.70
19359;DHT22;9815;52.334;20.890;2024-02-14T12:42:03;12.30;23.40
19359;DHT22;9815;52.334;20.890;2024-02-14T12:44:34;12.30;23.80
19359;DHT22;9815;52.334;20.890;2024-02-14T12:47:03;12.20;23.20
19359;DHT22;9815;52.334;20.890;2024-02-14T12:49:32;12.20;23.80
19359;DHT22;9815;52.334;20.890;2024-02-14T12:52:02;12.00;23.00
19359;DHT22;9815;52.334;20.890;2024-02-14T12:54:32;11.80;24.80
19359;DHT22;9815;52.334;20.890;2024-02-14T12:57:01;11.70;25.60
19359;DHT22;9815;52.334;20.890;2024-02-14T12:59:30;11.60;25.70
19359;DHT22;9815;52.334;20.890;2024-02-14T13:01:59;11.40;26.10
19359;DHT22;9815;52.334;20.890;2024-02-14T13:04:28;11.20;27.50
19359;DHT22;9815;52.334;20.890;2024-02-14T13:06:59;11.20;27.30
19359;DHT22;9815;52.334;20.890;2024-02-14T13:09:29;11.20;26.90
19359;DHT22;9815;52.334;20.890;2024-02-14T13:11:58;11.40;26.20
19359;DHT22;9815;52.334;20.890;2024-02-14T13:14:27;11.40;26.20
19359;DHT22;9815;52.334;20.890;2024-02-14T13:16:59;11.30;26.50
19359;DHT22;9815;52.334;20.890;2024-02-14T13:19:29;11.30;26.60
19359;DHT22;9815;52.334;20.890;2024-02-14T13:21:59;11.30;25.50
19359;DHT22;9815;52.334;20.890;2024-02-14T13:24:31;11.20;25.20
19359;DHT22;9815;52.334;20.890;2024-02-14T13:26:59;11.00;26.50
19359;DHT22;9815;52.334;20.890;2024-02-14T13:29:28;10.70;26.70
19359;DHT22;9815;52.334;20.890;2024-02-14T13:31:56;10.60;28.30
19359;DHT22;9815;52.334;20.890;2024-02-14T13:34:25;10.50;28.30
19359;DHT22;9815;52.334;20.890;2024-02-14T13:36:53;10.40;28.10
19359;DHT22;9815;52.334;20.890;2024-02-14T13:39:23;10.30;28.90
19359;DHT22;9815;52.334;20.890;2024-02-14T13:41:53;10.20;29.20
19359;DHT22;9815;52.334;20.890;2024-02-14T13:44:25;10.10;28.60
19359;DHT22;9815;52.334;20.890;2024-02-14T13:46:54;10.10;29.20
19359;DHT22;9815;52.334;20.890;2024-02-14T13:49:23;10.00;28.40
19359;DHT22;9815;52.334;20.890;2024-02-14T13:51:52;9.90;28.90
19359;DHT22;9815;52.334;20.890;2024-02-14T13:54:20;9.80;29.70
19359;DHT22;9815;52.334;20.890;2024-02-14T13:56:49;9.70;28.80
19359;DHT22;9815;52.334;20.890;2024-02-14T13:59:19;9.60;29.40
19359;DHT22;9815;52.334;20.890;2024-02-14T14:01:48;9.50;29.70
19359;DHT22;9815;52.334;20.890;2024-02-14T14:04:16;9.40;31.20
19359;DHT22;9815;52.334;20.890;2024-02-14T14:06:45;9.30;34.20
19359;DHT22;9815;52.334;20.890;2024-02-14T14:09:14;9.20;35.10
19359;DHT22;9815;52.334;20.890;2024-02-14T14:11:43;9.20;33.80
19359;DHT22;9815;52.334;20.890;2024-02-14T14:14:13;9.20;34.40
19359;DHT22;9815;52.334;20.890;2024-02-14T14:16:46;9.10;35.90
19359;DHT22;9815;52.334;20.890;2024-02-14T14:19:15;9.10;34.50
19359;DHT22;9815;52.334;20.890;2024-02-14T14:21:43;9.00;36.20
19359;DHT22;9815;52.334;20.890;2024-02-14T14:24:12;9.00;34.30
19359;DHT22;9815;52.334;20.890;2024-02-14T14:26:42;9.00;34.20
19359;DHT22;9815;52.334;20.890;2024-02-14T14:29:10;8.90;35.90
19359;DHT22;9815;52.334;20.890;2024-02-14T14:31:39;8.80;35.20
19359;DHT22;9815;52.334;20.890;2024-02-14T14:34:09;8.80;34.20
19359;DHT22;9815;52.334;20.890;2024-02-14T14:36:37;8.80;36.40
19359;DHT22;9815;52.334;20.890;2024-02-14T14:39:08;8.80;36.70
19359;DHT22;9815;52.334;20.890;2024-02-14T14:41:38;8.80;38.80
19359;DHT22;9815;52.334;20.890;2024-02-14T14:44:09;8.70;39.50
19359;DHT22;9815;52.334;20.890;2024-02-14T14:46:39;8.70;39.20
19359;DHT22;9815;52.334;20.890;2024-02-14T14:49:10;8.70;37.20
19359;DHT22;9815;52.334;20.890;2024-02-14T14:51:39;8.70;38.40
19359;DHT22;9815;52.334;20.890;2024-02-14T14:54:08;8.60;37.70
19359;DHT22;9815;52.334;20.890;2024-02-14T14:56:37;8.50;39.40
19359;DHT22;9815;52.334;20.890;2024-02-14T14:59:05;8.40;40.50
19359;DHT22;9815;52.334;20.890;2024-02-14T15:01:34;8.30;42.10
19359;DHT22;9815;52.334;20.890;2024-02-14T15:04:03;8.30;44.80
19359;DHT22;9815;52.334;20.890;2024-02-14T15:06:34;8.20;48.80
19359;DHT22;9815;52.334;20.890;2024-02-14T15:09:02;8.10;52.30
19359;DHT22;9815;52.334;20.890;2024-02-14T15:11:32;8.10;54.00
19359;DHT22;9815;52.334;20.890;2024-02-14T15:14:01;8.00;58.20
19359;DHT22;9815;52.334;20.890;2024-02-14T15:16:34;8.00;55.40
19359;DHT22;9815;52.334;20.890;2024-02-14T15:19:02;7.90;60.50
19359;DHT22;9815;52.334;20.890;2024-02-14T15:21:31;7.80;63.00
19359;DHT22;9815;52.334;20.890;2024-02-14T15:24:01;7.80;64.20
19359;DHT22;9815;52.334;20.890;2024-02-14T15:26:31;7.80;65.30
19359;DHT22;9815;52.334;20.890;2024-02-14T15:29:16;7.70;65.90
19359;DHT22;9815;52.334;20.890;2024-02-14T15:32:02;7.70;69.30
19359;DHT22;9815;52.334;20.890;2024-02-14T15:34:49;7.60;72.90
19359;DHT22;9815;52.334;20.890;2024-02-14T15:37:19;7.60;74.60
19359;DHT22;9815;52.334;20.890;2024-02-14T15:39:49;7.50;75.30
19359;DHT22;9815;52.334;20.890;2024-02-14T15:42:19;7.50;76.60
19359;DHT22;9815;52.334;20.890;2024-02-14T15:44:47;7.50;73.70
19359;DHT22;9815;52.334;20.890;2024-02-14T15:47:17;7.40;77.60
19359;DHT22;9815;52.334;20.890;2024-02-14T15:49:47;7.40;79.00
19359;DHT22;9815;52.334;20.890;2024-02-14T15:52:16;7.40;79.60
19359;DHT22;9815;52.334;20.890;2024-02-14T15:54:45;7.40;77.40
19359;DHT22;9815;52.334;20.890;2024-02-14T15:57:16;7.30;79.10